sim
Sign-in with your pilot id or email,
or register
Callsign
Passwort

Schedule Details

Flight Number: OEO2556
Departure: Frankfurt Airport (EDDF) at 10:30
Arrival: Gothenburg Landvetter Airport (ESGG) at 12:15

Weather Information
Getting current METAR information for EDDF 200150Z 07003KT CAVOK 03/02 Q1016 NOSIG
Getting current METAR information for ESGG 200150Z 14009KT 9999 FEW024 BKN044 04/02 Q1015

Schedule Frequency

Route Map